sensor_id;sensor_type;location;lat;lon;timestamp;temperature;humidity
1351;DHT22;669;50.206;9.998;2023-08-12T00:01:02;16.50;92.00
1351;DHT22;669;50.206;9.998;2023-08-12T00:03:30;16.50;88.20
1351;DHT22;669;50.206;9.998;2023-08-12T00:05:59;16.40;87.20
1351;DHT22;669;50.206;9.998;2023-08-12T00:08:28;16.30;90.50
1351;DHT22;669;50.206;9.998;2023-08-12T00:10:56;16.30;90.70
1351;DHT22;669;50.206;9.998;2023-08-12T00:13:24;16.30;91.30
1351;DHT22;669;50.206;9.998;2023-08-12T00:15:52;16.40;91.40
1351;DHT22;669;50.206;9.998;2023-08-12T00:18:22;16.40;91.20
1351;DHT22;669;50.206;9.998;2023-08-12T00:20:50;16.50;91.40
1351;DHT22;669;50.206;9.998;2023-08-12T00:23:18;16.50;87.50
1351;DHT22;669;50.206;9.998;2023-08-12T00:25:46;16.40;90.50
1351;DHT22;669;50.206;9.998;2023-08-12T00:28:14;16.40;90.90
1351;DHT22;669;50.206;9.998;2023-08-12T00:30:42;16.50;91.10
1351;DHT22;669;50.206;9.998;2023-08-12T00:33:10;16.50;91.40
1351;DHT22;669;50.206;9.998;2023-08-12T00:35:39;16.60;91.00
1351;DHT22;669;50.206;9.998;2023-08-12T00:38:07;16.60;91.20
1351;DHT22;669;50.206;9.998;2023-08-12T00:40:35;16.70;90.80
1351;DHT22;669;50.206;9.998;2023-08-12T00:43:03;16.70;90.80
1351;DHT22;669;50.206;9.998;2023-08-12T00:45:31;16.70;90.80
1351;DHT22;669;50.206;9.998;2023-08-12T00:47:59;16.70;91.40
1351;DHT22;669;50.206;9.998;2023-08-12T00:50:28;16.70;90.90
1351;DHT22;669;50.206;9.998;2023-08-12T00:52:58;16.70;90.90
1351;DHT22;669;50.206;9.998;2023-08-12T00:55:26;16.70;91.70
1351;DHT22;669;50.206;9.998;2023-08-12T00:57:54;16.70;91.00
1351;DHT22;669;50.206;9.998;2023-08-12T01:00:22;16.70;89.40
1351;DHT22;669;50.206;9.998;2023-08-12T01:02:51;16.50;89.40
1351;DHT22;669;50.206;9.998;2023-08-12T01:05:20;16.40;90.10
1351;DHT22;669;50.206;9.998;2023-08-12T01:07:48;16.40;90.70
1351;DHT22;669;50.206;9.998;2023-08-12T01:10:17;16.30;91.40
1351;DHT22;669;50.206;9.998;2023-08-12T01:12:50;16.20;91.30
1351;DHT22;669;50.206;9.998;2023-08-12T01:15:21;16.10;92.50
1351;DHT22;669;50.206;9.998;2023-08-12T01:17:53;16.20;93.20
1351;DHT22;669;50.206;9.998;2023-08-12T01:20:22;16.30;93.40
1351;DHT22;669;50.206;9.998;2023-08-12T01:22:57;16.30;92.80
1351;DHT22;669;50.206;9.998;2023-08-12T01:25:26;16.40;92.00
1351;DHT22;669;50.206;9.998;2023-08-12T01:27:54;16.50;92.30
1351;DHT22;669;50.206;9.998;2023-08-12T01:30:23;16.50;92.00
1351;DHT22;669;50.206;9.998;2023-08-12T01:32:57;16.50;92.00
1351;DHT22;669;50.206;9.998;2023-08-12T01:35:32;16.50;92.00
1351;DHT22;669;50.206;9.998;2023-08-12T01:38:03;16.60;92.20
1351;DHT22;669;50.206;9.998;2023-08-12T01:40:33;16.60;91.80
1351;DHT22;669;50.206;9.998;2023-08-12T01:43:03;16.60;91.50
1351;DHT22;669;50.206;9.998;2023-08-12T01:45:32;16.60;91.90
1351;DHT22;669;50.206;9.998;2023-08-12T01:48:00;16.70;91.60
1351;DHT22;669;50.206;9.998;2023-08-12T01:50:29;16.70;91.80
1351;DHT22;669;50.206;9.998;2023-08-12T01:52:57;16.70;91.80
1351;DHT22;669;50.206;9.998;2023-08-12T01:55:25;16.60;90.90
1351;DHT22;669;50.206;9.998;2023-08-12T01:57:54;16.50;89.80
1351;DHT22;669;50.206;9.998;2023-08-12T02:00:23;16.40;90.20
1351;DHT22;669;50.206;9.998;2023-08-12T02:02:51;16.30;92.00
1351;DHT22;669;50.206;9.998;2023-08-12T02:05:19;16.20;92.00
1351;DHT22;669;50.206;9.998;2023-08-12T02:07:47;16.20;92.80
1351;DHT22;669;50.206;9.998;2023-08-12T02:10:15;16.20;93.30
1351;DHT22;669;50.206;9.998;2023-08-12T02:12:43;16.20;93.40
1351;DHT22;669;50.206;9.998;2023-08-12T02:15:12;16.30;93.30
1351;DHT22;669;50.206;9.998;2023-08-12T02:17:40;16.40;93.20
1351;DHT22;669;50.206;9.998;2023-08-12T02:20:09;16.40;93.30
1351;DHT22;669;50.206;9.998;2023-08-12T02:22:37;16.40;93.20
1351;DHT22;669;50.206;9.998;2023-08-12T02:25:05;16.50;93.20
1351;DHT22;669;50.206;9.998;2023-08-12T02:27:33;16.50;93.40
1351;DHT22;669;50.206;9.998;2023-08-12T02:30:01;16.60;93.30
1351;DHT22;669;50.206;9.998;2023-08-12T02:32:31;16.60;92.50
1351;DHT22;669;50.206;9.998;2023-08-12T02:34:59;16.50;91.90
1351;DHT22;669;50.206;9.998;2023-08-12T02:37:27;16.40;92.70
1351;DHT22;669;50.206;9.998;2023-08-12T02:39:56;16.40;93.10
1351;DHT22;669;50.206;9.998;2023-08-12T02:42:24;16.40;93.90
1351;DHT22;669;50.206;9.998;2023-08-12T02:44:52;16.50;93.80
1351;DHT22;669;50.206;9.998;2023-08-12T02:47:20;16.50;93.60
1351;DHT22;669;50.206;9.998;2023-08-12T02:49:50;16.50;94.00
1351;DHT22;669;50.206;9.998;2023-08-12T02:52:18;16.50;92.90
1351;DHT22;669;50.206;9.998;2023-08-12T02:54:45;16.40;92.30
1351;DHT22;669;50.206;9.998;2023-08-12T02:57:14;16.30;93.20
1351;DHT22;669;50.206;9.998;2023-08-12T02:59:42;16.30;94.00
1351;DHT22;669;50.206;9.998;2023-08-12T03:02:09;16.30;94.00
1351;DHT22;669;50.206;9.998;2023-08-12T03:04:37;16.40;94.20
1351;DHT22;669;50.206;9.998;2023-08-12T03:07:07;16.50;94.40
1351;DHT22;669;50.206;9.998;2023-08-12T03:09:36;16.50;94.40
1351;DHT22;669;50.206;9.998;2023-08-12T03:12:04;16.60;94.10
1351;DHT22;669;50.206;9.998;2023-08-12T03:14:32;16.70;93.60
1351;DHT22;669;50.206;9.998;2023-08-12T03:17:00;16.70;93.70
1351;DHT22;669;50.206;9.998;2023-08-12T03:19:28;16.70;93.70
1351;DHT22;669;50.206;9.998;2023-08-12T03:21:56;16.80;93.60
1351;DHT22;669;50.206;9.998;2023-08-12T03:24:25;16.70;93.60
1351;DHT22;669;50.206;9.998;2023-08-12T03:26:53;16.80;94.00
1351;DHT22;669;50.206;9.998;2023-08-12T03:29:21;16.80;93.20
1351;DHT22;669;50.206;9.998;2023-08-12T03:31:49;16.70;93.40
1351;DHT22;669;50.206;9.998;2023-08-12T03:34:17;16.70;93.20
1351;DHT22;669;50.206;9.998;2023-08-12T03:36:45;16.60;94.80
1351;DHT22;669;50.206;9.998;2023-08-12T03:39:15;16.70;94.60
1351;DHT22;669;50.206;9.998;2023-08-12T03:41:44;16.70;94.80
1351;DHT22;669;50.206;9.998;2023-08-12T03:44:12;16.70;94.40
1351;DHT22;669;50.206;9.998;2023-08-12T03:46:40;16.60;94.10
1351;DHT22;669;50.206;9.998;2023-08-12T03:49:08;16.60;94.50
1351;DHT22;669;50.206;9.998;2023-08-12T03:51:36;16.60;94.10
1351;DHT22;669;50.206;9.998;2023-08-12T03:54:05;16.50;94.70
1351;DHT22;669;50.206;9.998;2023-08-12T03:56:33;16.50;95.10
1351;DHT22;669;50.206;9.998;2023-08-12T03:59:02;16.60;95.60
1351;DHT22;669;50.206;9.998;2023-08-12T04:01:30;16.60;96.20
1351;DHT22;669;50.206;9.998;2023-08-12T04:03:58;16.70;96.10
1351;DHT22;669;50.206;9.998;2023-08-12T04:06:26;16.80;96.00
1351;DHT22;669;50.206;9.998;2023-08-12T04:08:54;16.90;95.80
1351;DHT22;669;50.206;9.998;2023-08-12T04:11:22;16.90;95.80
1351;DHT22;669;50.206;9.998;2023-08-12T04:13:50;17.00;95.80
1351;DHT22;669;50.206;9.998;2023-08-12T04:16:19;17.00;95.50
1351;DHT22;669;50.206;9.998;2023-08-12T04:18:47;17.00;95.50
1351;DHT22;669;50.206;9.998;2023-08-12T04:21:15;17.00;96.30
1351;DHT22;669;50.206;9.998;2023-08-12T04:23:43;17.00;95.60
1351;DHT22;669;50.206;9.998;2023-08-12T04:26:11;17.00;95.00
1351;DHT22;669;50.206;9.998;2023-08-12T04:28:39;16.90;95.20
1351;DHT22;669;50.206;9.998;2023-08-12T04:31:07;16.90;95.40
1351;DHT22;669;50.206;9.998;2023-08-12T04:33:36;16.80;95.80
1351;DHT22;669;50.206;9.998;2023-08-12T04:36:05;16.80;95.90
1351;DHT22;669;50.206;9.998;2023-08-12T04:38:34;16.80;96.80
1351;DHT22;669;50.206;9.998;2023-08-12T04:41:01;16.90;96.70
1351;DHT22;669;50.206;9.998;2023-08-12T04:43:30;16.90;96.60
1351;DHT22;669;50.206;9.998;2023-08-12T04:45:58;17.00;97.00
1351;DHT22;669;50.206;9.998;2023-08-12T04:48:26;17.00;96.60
1351;DHT22;669;50.206;9.998;2023-08-12T04:50:55;17.10;96.80
1351;DHT22;669;50.206;9.998;2023-08-12T04:53:27;17.20;96.80
1351;DHT22;669;50.206;9.998;2023-08-12T04:55:55;17.20;96.80
1351;DHT22;669;50.206;9.998;2023-08-12T04:58:23;17.20;96.70
1351;DHT22;669;50.206;9.998;2023-08-12T05:00:51;17.30;97.20
1351;DHT22;669;50.206;9.998;2023-08-12T05:03:19;17.30;97.40
1351;DHT22;669;50.206;9.998;2023-08-12T05:05:49;17.40;97.20
1351;DHT22;669;50.206;9.998;2023-08-12T05:08:19;17.40;97.10
1351;DHT22;669;50.206;9.998;2023-08-12T05:10:47;17.40;97.20
1351;DHT22;669;50.206;9.998;2023-08-12T05:13:16;17.50;97.10
1351;DHT22;669;50.206;9.998;2023-08-12T05:15:45;17.50;96.80
1351;DHT22;669;50.206;9.998;2023-08-12T05:18:14;17.50;97.10
1351;DHT22;669;50.206;9.998;2023-08-12T05:20:42;17.50;97.40
1351;DHT22;669;50.206;9.998;2023-08-12T05:23:13;17.50;97.60
1351;DHT22;669;50.206;9.998;2023-08-12T05:25:42;17.50;97.30
1351;DHT22;669;50.206;9.998;2023-08-12T05:28:10;17.50;97.30
1351;DHT22;669;50.206;9.998;2023-08-12T05:30:38;17.50;97.70
1351;DHT22;669;50.206;9.998;2023-08-12T05:33:06;17.60;98.00
1351;DHT22;669;50.206;9.998;2023-08-12T05:35:34;17.60;97.90
1351;DHT22;669;50.206;9.998;2023-08-12T05:38:03;17.70;97.90
1351;DHT22;669;50.206;9.998;2023-08-12T05:40:31;17.70;97.50
1351;DHT22;669;50.206;9.998;2023-08-12T05:43:00;17.70;97.50
1351;DHT22;669;50.206;9.998;2023-08-12T05:45:29;17.70;97.50
1351;DHT22;669;50.206;9.998;2023-08-12T05:47:57;17.70;97.50
1351;DHT22;669;50.206;9.998;2023-08-12T05:50:25;17.70;97.80
1351;DHT22;669;50.206;9.998;2023-08-12T05:52:53;17.80;97.60
1351;DHT22;669;50.206;9.998;2023-08-12T05:55:21;17.90;97.60
1351;DHT22;669;50.206;9.998;2023-08-12T05:57:49;18.00;97.20
1351;DHT22;669;50.206;9.998;2023-08-12T06:00:18;18.00;97.00
1351;DHT22;669;50.206;9.998;2023-08-12T06:02:46;18.10;97.00
1351;DHT22;669;50.206;9.998;2023-08-12T06:05:18;18.20;96.90
1351;DHT22;669;50.206;9.998;2023-08-12T06:07:46;18.20;96.90
1351;DHT22;669;50.206;9.998;2023-08-12T06:10:14;18.30;97.40
1351;DHT22;669;50.206;9.998;2023-08-12T06:12:42;18.40;97.30
1351;DHT22;669;50.206;9.998;2023-08-12T06:15:10;18.40;97.50
1351;DHT22;669;50.206;9.998;2023-08-12T06:17:40;18.40;97.70
1351;DHT22;669;50.206;9.998;2023-08-12T06:20:09;18.40;98.00
1351;DHT22;669;50.206;9.998;2023-08-12T06:22:37;18.50;97.70
1351;DHT22;669;50.206;9.998;2023-08-12T06:25:05;18.60;98.00
1351;DHT22;669;50.206;9.998;2023-08-12T06:27:33;18.70;97.80
1351;DHT22;669;50.206;9.998;2023-08-12T06:30:01;18.70;97.30
1351;DHT22;669;50.206;9.998;2023-08-12T06:32:29;18.80;97.70
1351;DHT22;669;50.206;9.998;2023-08-12T06:34:58;18.90;97.50
1351;DHT22;669;50.206;9.998;2023-08-12T06:37:26;18.90;97.10
1351;DHT22;669;50.206;9.998;2023-08-12T06:39:54;19.00;96.60
1351;DHT22;669;50.206;9.998;2023-08-12T06:42:22;19.00;96.50
1351;DHT22;669;50.206;9.998;2023-08-12T06:44:58;19.00;96.60
1351;DHT22;669;50.206;9.998;2023-08-12T06:47:26;19.10;96.40
1351;DHT22;669;50.206;9.998;2023-08-12T06:49:57;19.20;96.00
1351;DHT22;669;50.206;9.998;2023-08-12T06:52:26;19.20;96.10
1351;DHT22;669;50.206;9.998;2023-08-12T06:54:54;19.20;95.30
1351;DHT22;669;50.206;9.998;2023-08-12T06:57:25;19.10;94.30
1351;DHT22;669;50.206;9.998;2023-08-12T06:59:53;19.10;94.90
1351;DHT22;669;50.206;9.998;2023-08-12T07:02:21;19.20;93.70
1351;DHT22;669;50.206;9.998;2023-08-12T07:04:49;19.30;93.50
1351;DHT22;669;50.206;9.998;2023-08-12T07:07:19;19.50;93.30
1351;DHT22;669;50.206;9.998;2023-08-12T07:09:47;19.70;90.60
1351;DHT22;669;50.206;9.998;2023-08-12T07:12:15;19.90;90.20
1351;DHT22;669;50.206;9.998;2023-08-12T07:14:43;19.90;90.00
1351;DHT22;669;50.206;9.998;2023-08-12T07:17:11;20.10;88.70
1351;DHT22;669;50.206;9.998;2023-08-12T07:19:39;20.20;86.50
1351;DHT22;669;50.206;9.998;2023-08-12T07:22:07;20.50;85.50
1351;DHT22;669;50.206;9.998;2023-08-12T07:24:37;20.90;83.80
1351;DHT22;669;50.206;9.998;2023-08-12T07:27:05;21.30;73.40
1351;DHT22;669;50.206;9.998;2023-08-12T07:29:33;21.60;69.00
1351;DHT22;669;50.206;9.998;2023-08-12T07:32:01;21.60;68.50
1351;DHT22;669;50.206;9.998;2023-08-12T07:34:29;21.80;69.30
1351;DHT22;669;50.206;9.998;2023-08-12T07:36:57;22.00;69.20
1351;DHT22;669;50.206;9.998;2023-08-12T07:39:25;22.30;64.40
1351;DHT22;669;50.206;9.998;2023-08-12T07:41:55;22.30;65.90
1351;DHT22;669;50.206;9.998;2023-08-12T07:44:23;22.20;62.70
1351;DHT22;669;50.206;9.998;2023-08-12T07:46:51;22.20;62.90
1351;DHT22;669;50.206;9.998;2023-08-12T07:49:19;22.20;61.10
1351;DHT22;669;50.206;9.998;2023-08-12T07:51:47;22.20;61.10
1351;DHT22;669;50.206;9.998;2023-08-12T07:54:15;22.20;61.10
1351;DHT22;669;50.206;9.998;2023-08-12T07:56:43;22.30;59.30
1351;DHT22;669;50.206;9.998;2023-08-12T07:59:12;22.40;58.40
1351;DHT22;669;50.206;9.998;2023-08-12T08:01:40;22.50;58.40
1351;DHT22;669;50.206;9.998;2023-08-12T08:04:08;22.60;58.70
1351;DHT22;669;50.206;9.998;2023-08-12T08:06:36;22.70;59.40
1351;DHT22;669;50.206;9.998;2023-08-12T08:09:04;23.40;61.80
1351;DHT22;669;50.206;9.998;2023-08-12T08:11:32;23.90;54.80
1351;DHT22;669;50.206;9.998;2023-08-12T08:14:01;24.40;53.20
1351;DHT22;669;50.206;9.998;2023-08-12T08:16:30;24.90;53.50
1351;DHT22;669;50.206;9.998;2023-08-12T08:18:58;25.20;43.80
1351;DHT22;669;50.206;9.998;2023-08-12T08:21:27;25.40;39.30
1351;DHT22;669;50.206;9.998;2023-08-12T08:23:55;25.50;41.80
1351;DHT22;669;50.206;9.998;2023-08-12T08:26:23;25.90;40.40
1351;DHT22;669;50.206;9.998;2023-08-12T08:28:51;26.30;40.60
1351;DHT22;669;50.206;9.998;2023-08-12T08:31:19;26.40;40.00
1351;DHT22;669;50.206;9.998;2023-08-12T08:33:48;26.80;44.10
1351;DHT22;669;50.206;9.998;2023-08-12T08:36:16;27.00;32.90
1351;DHT22;669;50.206;9.998;2023-08-12T08:38:44;26.60;31.40
1351;DHT22;669;50.206;9.998;2023-08-12T08:41:13;26.20;33.90
1351;DHT22;669;50.206;9.998;2023-08-12T08:43:42;25.60;36.10
1351;DHT22;669;50.206;9.998;2023-08-12T08:46:14;25.30;40.50
1351;DHT22;669;50.206;9.998;2023-08-12T08:48:42;25.20;42.20
1351;DHT22;669;50.206;9.998;2023-08-12T08:51:12;25.20;43.80
1351;DHT22;669;50.206;9.998;2023-08-12T08:53:41;25.60;41.60
1351;DHT22;669;50.206;9.998;2023-08-12T08:56:11;25.80;38.40
1351;DHT22;669;50.206;9.998;2023-08-12T08:58:41;26.10;35.60
1351;DHT22;669;50.206;9.998;2023-08-12T09:01:09;26.30;36.20
1351;DHT22;669;50.206;9.998;2023-08-12T09:03:39;26.80;35.90
1351;DHT22;669;50.206;9.998;2023-08-12T09:06:07;27.40;33.40
1351;DHT22;669;50.206;9.998;2023-08-12T09:08:37;27.50;32.00
1351;DHT22;669;50.206;9.998;2023-08-12T09:11:08;27.30;29.50
1351;DHT22;669;50.206;9.998;2023-08-12T09:13:37;27.10;36.00
1351;DHT22;669;50.206;9.998;2023-08-12T09:16:05;26.90;36.90
1351;DHT22;669;50.206;9.998;2023-08-12T09:18:34;26.90;36.00
1351;DHT22;669;50.206;9.998;2023-08-12T09:21:03;27.00;31.40
1351;DHT22;669;50.206;9.998;2023-08-12T09:23:34;27.10;33.70
1351;DHT22;669;50.206;9.998;2023-08-12T09:26:12;27.40;40.50
1351;DHT22;669;50.206;9.998;2023-08-12T09:28:40;27.90;34.10
1351;DHT22;669;50.206;9.998;2023-08-12T09:31:09;27.80;29.40
1351;DHT22;669;50.206;9.998;2023-08-12T09:33:49;28.00;28.60
1351;DHT22;669;50.206;9.998;2023-08-12T09:36:17;28.10;28.60
1351;DHT22;669;50.206;9.998;2023-08-12T09:38:45;28.10;27.70
1351;DHT22;669;50.206;9.998;2023-08-12T09:41:15;28.00;28.70
1351;DHT22;669;50.206;9.998;2023-08-12T09:43:44;27.70;29.50
1351;DHT22;669;50.206;9.998;2023-08-12T09:46:12;27.30;30.40
1351;DHT22;669;50.206;9.998;2023-08-12T09:48:42;26.90;32.30
1351;DHT22;669;50.206;9.998;2023-08-12T09:51:10;26.70;34.80
1351;DHT22;669;50.206;9.998;2023-08-12T09:53:38;26.50;35.70
1351;DHT22;669;50.206;9.998;2023-08-12T09:56:11;26.20;46.40
1351;DHT22;669;50.206;9.998;2023-08-12T09:58:41;26.00;48.80
1351;DHT22;669;50.206;9.998;2023-08-12T10:01:11;25.70;54.00
1351;DHT22;669;50.206;9.998;2023-08-12T10:03:41;25.40;57.00
1351;DHT22;669;50.206;9.998;2023-08-12T10:06:09;25.10;60.40
1351;DHT22;669;50.206;9.998;2023-08-12T10:08:41;24.90;64.80
1351;DHT22;669;50.206;9.998;2023-08-12T10:11:12;24.60;71.30
1351;DHT22;669;50.206;9.998;2023-08-12T10:13:43;24.30;75.80
1351;DHT22;669;50.206;9.998;2023-08-12T10:16:11;24.30;79.50
1351;DHT22;669;50.206;9.998;2023-08-12T10:18:40;24.40;80.90
1351;DHT22;669;50.206;9.998;2023-08-12T10:21:09;24.30;76.70
1351;DHT22;669;50.206;9.998;2023-08-12T10:23:38;24.50;79.40
1351;DHT22;669;50.206;9.998;2023-08-12T10:26:12;25.00;80.80
1351;DHT22;669;50.206;9.998;2023-08-12T10:28:42;25.70;83.80
1351;DHT22;669;50.206;9.998;2023-08-12T10:31:11;26.30;75.60
1351;DHT22;669;50.206;9.998;2023-08-12T10:33:40;26.70;65.20
1351;DHT22;669;50.206;9.998;2023-08-12T10:36:09;27.10;61.00
1351;DHT22;669;50.206;9.998;2023-08-12T10:38:37;27.50;69.80
1351;DHT22;669;50.206;9.998;2023-08-12T10:41:18;27.80;56.70
1351;DHT22;669;50.206;9.998;2023-08-12T10:43:53;28.20;51.10
1351;DHT22;669;50.206;9.998;2023-08-12T10:46:23;28.30;48.90
1351;DHT22;669;50.206;9.998;2023-08-12T10:49:13;28.50;45.90
1351;DHT22;669;50.206;9.998;2023-08-12T10:51:44;28.90;48.50
1351;DHT22;669;50.206;9.998;2023-08-12T10:54:21;29.00;43.00
1351;DHT22;669;50.206;9.998;2023-08-12T10:57:09;29.30;51.50
1351;DHT22;669;50.206;9.998;2023-08-12T10:59:52;29.50;46.30
1351;DHT22;669;50.206;9.998;2023-08-12T11:02:27;29.50;44.70
1351;DHT22;669;50.206;9.998;2023-08-12T11:04:57;29.60;39.70
1351;DHT22;669;50.206;9.998;2023-08-12T11:07:33;29.70;38.00
1351;DHT22;669;50.206;9.998;2023-08-12T11:10:09;29.70;33.30
1351;DHT22;669;50.206;9.998;2023-08-12T11:12:39;29.60;37.80
1351;DHT22;669;50.206;9.998;2023-08-12T11:15:10;29.40;39.40
1351;DHT22;669;50.206;9.998;2023-08-12T11:17:39;29.20;34.10
1351;DHT22;669;50.206;9.998;2023-08-12T11:20:09;29.50;43.90
1351;DHT22;669;50.206;9.998;2023-08-12T11:22:38;29.40;32.60
1351;DHT22;669;50.206;9.998;2023-08-12T11:25:07;29.10;31.60
1351;DHT22;669;50.206;9.998;2023-08-12T11:27:40;28.70;37.80
1351;DHT22;669;50.206;9.998;2023-08-12T11:30:11;28.50;38.10
1351;DHT22;669;50.206;9.998;2023-08-12T11:32:42;28.50;41.70
1351;DHT22;669;50.206;9.998;2023-08-12T11:35:12;28.90;37.30
1351;DHT22;669;50.206;9.998;2023-08-12T11:37:41;29.00;35.80
1351;DHT22;669;50.206;9.998;2023-08-12T11:40:10;28.50;35.00
1351;DHT22;669;50.206;9.998;2023-08-12T11:42:42;28.30;39.50
1351;DHT22;669;50.206;9.998;2023-08-12T11:45:14;28.10;38.50
1351;DHT22;669;50.206;9.998;2023-08-12T11:47:42;28.00;40.00
1351;DHT22;669;50.206;9.998;2023-08-12T11:50:12;27.90;44.90
1351;DHT22;669;50.206;9.998;2023-08-12T11:52:40;27.80;46.40
1351;DHT22;669;50.206;9.998;2023-08-12T11:55:09;27.70;44.80
1351;DHT22;669;50.206;9.998;2023-08-12T11:57:39;27.60;43.00
1351;DHT22;669;50.206;9.998;2023-08-12T12:00:09;27.50;43.80
1351;DHT22;669;50.206;9.998;2023-08-12T12:02:48;27.30;45.40
1351;DHT22;669;50.206;9.998;2023-08-12T12:05:18;27.10;44.90
1351;DHT22;669;50.206;9.998;2023-08-12T12:07:51;26.90;43.50
1351;DHT22;669;50.206;9.998;2023-08-12T12:10:20;26.60;45.60
1351;DHT22;669;50.206;9.998;2023-08-12T12:12:49;26.30;47.10
1351;DHT22;669;50.206;9.998;2023-08-12T12:15:17;26.10;49.90
1351;DHT22;669;50.206;9.998;2023-08-12T12:17:47;25.70;54.20
1351;DHT22;669;50.206;9.998;2023-08-12T12:20:17;25.20;64.70
1351;DHT22;669;50.206;9.998;2023-08-12T12:22:46;24.10;73.10
1351;DHT22;669;50.206;9.998;2023-08-12T12:25:16;23.10;80.30
1351;DHT22;669;50.206;9.998;2023-08-12T12:27:46;22.20;88.80
1351;DHT22;669;50.206;9.998;2023-08-12T12:30:16;21.50;92.10
1351;DHT22;669;50.206;9.998;2023-08-12T12:32:44;21.00;95.00
1351;DHT22;669;50.206;9.998;2023-08-12T12:35:14;20.60;95.90
1351;DHT22;669;50.206;9.998;2023-08-12T12:37:42;20.30;97.30
1351;DHT22;669;50.206;9.998;2023-08-12T12:40:11;20.00;99.50
1351;DHT22;669;50.206;9.998;2023-08-12T12:42:39;19.90;99.90
1351;DHT22;669;50.206;9.998;2023-08-12T12:45:08;19.70;99.10
1351;DHT22;669;50.206;9.998;2023-08-12T12:47:37;19.60;99.90
1351;DHT22;669;50.206;9.998;2023-08-12T12:50:06;19.60;99.90
1351;DHT22;669;50.206;9.998;2023-08-12T12:52:36;19.60;99.90
1351;DHT22;669;50.206;9.998;2023-08-12T12:55:04;19.50;99.90
1351;DHT22;669;50.206;9.998;2023-08-12T12:57:32;19.40;99.90
1351;DHT22;669;50.206;9.998;2023-08-12T13:00:01;19.40;99.90
1351;DHT22;669;50.206;9.998;2023-08-12T13:02:31;19.30;99.90
1351;DHT22;669;50.206;9.998;2023-08-12T13:04:59;19.40;99.90
1351;DHT22;669;50.206;9.998;2023-08-12T13:07:27;19.20;99.90
1351;DHT22;669;50.206;9.998;2023-08-12T13:09:56;19.20;99.90
1351;DHT22;669;50.206;9.998;2023-08-12T13:12:24;19.20;99.90
1351;DHT22;669;50.206;9.998;2023-08-12T13:14:52;19.10;99.90
1351;DHT22;669;50.206;9.998;2023-08-12T13:17:20;19.00;99.90
1351;DHT22;669;50.206;9.998;2023-08-12T13:19:48;19.00;99.90
1351;DHT22;669;50.206;9.998;2023-08-12T13:22:16;19.00;99.90
1351;DHT22;669;50.206;9.998;2023-08-12T13:24:44;19.00;99.90
1351;DHT22;669;50.206;9.998;2023-08-12T13:27:14;19.00;99.90
1351;DHT22;669;50.206;9.998;2023-08-12T13:29:44;19.00;99.90
1351;DHT22;669;50.206;9.998;2023-08-12T13:32:12;19.10;99.90
1351;DHT22;669;50.206;9.998;2023-08-12T13:34:41;19.20;99.90
1351;DHT22;669;50.206;9.998;2023-08-12T13:37:09;19.20;99.90
1351;DHT22;669;50.206;9.998;2023-08-12T13:39:38;19.30;99.90
1351;DHT22;669;50.206;9.998;2023-08-12T13:42:06;19.20;99.90
1351;DHT22;669;50.206;9.998;2023-08-12T13:44:35;19.20;99.90
1351;DHT22;669;50.206;9.998;2023-08-12T13:47:03;19.20;99.90
1351;DHT22;669;50.206;9.998;2023-08-12T13:49:32;19.20;99.90
1351;DHT22;669;50.206;9.998;2023-08-12T13:51:59;19.20;99.90
1351;DHT22;669;50.206;9.998;2023-08-12T13:54:27;19.20;99.90
1351;DHT22;669;50.206;9.998;2023-08-12T13:56:55;19.10;99.90
1351;DHT22;669;50.206;9.998;2023-08-12T13:59:23;19.20;99.90
1351;DHT22;669;50.206;9.998;2023-08-12T14:01:53;19.20;99.90
1351;DHT22;669;50.206;9.998;2023-08-12T14:04:21;19.20;99.90
1351;DHT22;669;50.206;9.998;2023-08-12T14:06:49;19.40;99.90
1351;DHT22;669;50.206;9.998;2023-08-12T14:09:18;19.50;99.90
1351;DHT22;669;50.206;9.998;2023-08-12T14:11:46;19.80;99.90
1351;DHT22;669;50.206;9.998;2023-08-12T14:14:14;19.90;99.90
1351;DHT22;669;50.206;9.998;2023-08-12T14:16:43;20.30;99.90
1351;DHT22;669;50.206;9.998;2023-08-12T14:19:12;20.80;99.90
1351;DHT22;669;50.206;9.998;2023-08-12T14:21:43;21.20;99.90
1351;DHT22;669;50.206;9.998;2023-08-12T14:24:11;21.50;99.90
1351;DHT22;669;50.206;9.998;2023-08-12T14:26:40;21.80;99.90
1351;DHT22;669;50.206;9.998;2023-08-12T14:29:08;22.20;99.90
1351;DHT22;669;50.206;9.998;2023-08-12T14:31:36;22.30;99.90
1351;DHT22;669;50.206;9.998;2023-08-12T14:34:04;22.50;99.90
1351;DHT22;669;50.206;9.998;2023-08-12T14:36:33;22.60;99.90
1351;DHT22;669;50.206;9.998;2023-08-12T14:39:02;22.70;96.80
1351;DHT22;669;50.206;9.998;2023-08-12T14:41:30;22.70;98.30
1351;DHT22;669;50.206;9.998;2023-08-12T14:43:58;22.60;98.00
1351;DHT22;669;50.206;9.998;2023-08-12T14:46:26;22.40;97.70
1351;DHT22;669;50.206;9.998;2023-08-12T14:48:54;22.30;97.10
1351;DHT22;669;50.206;9.998;2023-08-12T14:51:23;22.10;96.50
1351;DHT22;669;50.206;9.998;2023-08-12T14:53:53;21.90;97.40
1351;DHT22;669;50.206;9.998;2023-08-12T14:56:21;21.80;97.40
1351;DHT22;669;50.206;9.998;2023-08-12T14:58:49;21.70;97.90
1351;DHT22;669;50.206;9.998;2023-08-12T15:01:17;21.70;99.00
1351;DHT22;669;50.206;9.998;2023-08-12T15:03:45;21.70;99.30
1351;DHT22;669;50.206;9.998;2023-08-12T15:06:13;21.80;99.40
1351;DHT22;669;50.206;9.998;2023-08-12T15:08:41;21.90;98.20
1351;DHT22;669;50.206;9.998;2023-08-12T15:11:11;22.00;98.20
1351;DHT22;669;50.206;9.998;2023-08-12T15:13:39;22.00;97.50
1351;DHT22;669;50.206;9.998;2023-08-12T15:16:07;21.90;97.20
1351;DHT22;669;50.206;9.998;2023-08-12T15:18:37;21.90;97.70
1351;DHT22;669;50.206;9.998;2023-08-12T15:21:05;21.90;96.50
1351;DHT22;669;50.206;9.998;2023-08-12T15:23:33;21.80;97.20
1351;DHT22;669;50.206;9.998;2023-08-12T15:26:02;21.80;96.00
1351;DHT22;669;50.206;9.998;2023-08-12T15:28:32;21.70;96.40
1351;DHT22;669;50.206;9.998;2023-08-12T15:31:00;21.70;98.30
1351;DHT22;669;50.206;9.998;2023-08-12T15:33:28;21.70;98.40
1351;DHT22;669;50.206;9.998;2023-08-12T15:35:56;21.70;99.70
1351;DHT22;669;50.206;9.998;2023-08-12T15:38:24;21.80;99.00
1351;DHT22;669;50.206;9.998;2023-08-12T15:40:52;21.80;98.30
1351;DHT22;669;50.206;9.998;2023-08-12T15:43:20;21.80;98.60
1351;DHT22;669;50.206;9.998;2023-08-12T15:45:49;21.70;98.40
1351;DHT22;669;50.206;9.998;2023-08-12T15:48:17;21.60;98.40
1351;DHT22;669;50.206;9.998;2023-08-12T15:50:46;21.50;99.00
1351;DHT22;669;50.206;9.998;2023-08-12T15:53:14;21.50;99.60
1351;DHT22;669;50.206;9.998;2023-08-12T15:55:42;21.40;99.30
1351;DHT22;669;50.206;9.998;2023-08-12T15:58:10;21.40;98.90
1351;DHT22;669;50.206;9.998;2023-08-12T16:00:38;21.40;97.30
1351;DHT22;669;50.206;9.998;2023-08-12T16:03:11;21.30;98.30
1351;DHT22;669;50.206;9.998;2023-08-12T16:05:39;21.30;98.80
1351;DHT22;669;50.206;9.998;2023-08-12T16:08:07;21.30;99.50
1351;DHT22;669;50.206;9.998;2023-08-12T16:10:36;21.30;99.60
1351;DHT22;669;50.206;9.998;2023-08-12T16:13:04;21.30;99.80
1351;DHT22;669;50.206;9.998;2023-08-12T16:15:32;21.30;99.90
1351;DHT22;669;50.206;9.998;2023-08-12T16:18:00;21.30;99.90
1351;DHT22;669;50.206;9.998;2023-08-12T16:20:30;21.30;99.90
1351;DHT22;669;50.206;9.998;2023-08-12T16:22:58;21.30;99.90
1351;DHT22;669;50.206;9.998;2023-08-12T16:25:26;21.40;99.90
1351;DHT22;669;50.206;9.998;2023-08-12T16:27:54;21.30;99.90